Time;durP1;ratioP1;P1;durP2;ratioP2;P2;SDS_P1;SDS_P2;PMS_P1;PMS_P2;Temp;Humidity;BMP_temperature;BMP_pressure;BME280_temperature;BME280_humidity;BME280_pressure;Samples;Min_cycle;Max_cycle;Signal;HPM_P1;HPM_P2
2022/04/06 00:01:21;;;;;;;6.38;5.90;;;;;;;4.08;100.00;99242.25;5038389;28;21216;-82
2022/04/06 00:03:54;;;;;;;6.63;6.13;;;;;;;4.16;100.00;99245.50;5038727;28;20417;-82
2022/04/06 00:06:28;;;;;;;7.10;6.60;;;;;;;4.10;100.00;99241.97;5038994;28;20444;-83
2022/04/06 00:09:01;;;;;;;7.63;7.13;;;;;;;4.10;100.00;99236.59;5045264;28;20414;-82
2022/04/06 00:11:34;;;;;;;7.78;7.22;;;;;;;4.14;100.00;99240.34;5035561;28;20449;-82
2022/04/06 00:14:09;;;;;;;8.15;7.55;;;;;;;4.05;100.00;99237.41;5039162;28;20430;-82
2022/04/06 00:16:37;;;;;;;8.40;7.80;;;;;;;4.13;100.00;99233.38;5041808;28;20421;-81
2022/04/06 00:19:05;;;;;;;9.52;8.88;;;;;;;4.04;100.00;99216.94;5055548;28;20427;-81
2022/04/06 00:21:38;;;;;;;10.77;10.07;;;;;;;4.13;100.00;99224.47;5039070;28;20799;-81
2022/04/06 00:24:07;;;;;;;11.60;10.82;;;;;;;4.16;100.00;99224.75;5041065;28;20428;-81
2022/04/06 00:26:35;;;;;;;11.95;11.15;;;;;;;4.20;100.00;99220.44;5038872;28;20417;-81
2022/04/06 00:29:10;;;;;;;10.13;9.43;;;;;;;4.23;100.00;99217.19;5043723;28;20793;-81
2022/04/06 00:31:43;;;;;;;10.80;10.10;;;;;;;4.21;100.00;99219.34;5037397;28;20437;-81
2022/04/06 00:34:16;;;;;;;12.18;11.38;;;;;;;4.13;100.00;99201.06;5043014;28;20417;-81
2022/04/06 00:36:49;;;;;;;13.55;12.73;;;;;;;4.16;100.00;99207.78;5035844;28;20431;-81
2022/04/06 00:39:23;;;;;;;17.00;16.00;;;;;;;4.22;100.00;99210.19;5054566;28;20897;-81
2022/04/06 00:41:56;;;;;;;21.35;20.15;;;;;;;4.24;100.00;99207.25;5041179;28;20436;-80
2022/04/06 00:44:27;;;;;;;24.77;23.37;;;;;;;4.29;100.00;99198.31;5039690;28;20944;-80
2022/04/06 00:47:00;;;;;;;24.88;23.48;;;;;;;4.24;100.00;99197.25;5036424;28;20923;-81
2022/04/06 00:49:34;;;;;;;26.75;25.25;;;;;;;4.39;100.00;99193.72;5037342;28;20766;-80
2022/04/06 00:52:08;;;;;;;30.10;28.42;;;;;;;4.45;100.00;99191.81;5037500;28;20441;-81
2022/04/06 00:54:42;;;;;;;33.25;31.45;;;;;;;4.52;100.00;99181.53;5038246;28;20928;-82
2022/04/06 00:57:16;;;;;;;35.70;33.80;;;;;;;4.60;100.00;99188.25;5042615;28;20444;-81
2022/04/06 00:59:48;;;;;;;37.05;35.05;;;;;;;4.65;100.00;99177.41;5036617;28;21060;-80
2022/04/06 01:02:21;;;;;;;46.35;43.85;;;;;;;4.73;100.00;99170.66;5041811;28;20414;-80
2022/04/06 01:04:54;;;;;;;74.13;70.18;;;;;;;4.81;100.00;99166.56;5038974;28;20430;-81
2022/04/06 01:07:28;;;;;;;107.50;101.93;;;;;;;4.94;100.00;99166.75;5036636;28;20428;-80
2022/04/06 01:10:01;;;;;;;173.48;164.25;;;;;;;5.08;100.00;99168.81;5052037;28;20440;-81
2022/04/06 01:12:35;;;;;;;351.80;332.05;;;;;;;5.21;100.00;99156.59;5039332;28;20425;-81
2022/04/06 01:15:10;;;;;;;571.13;535.50;;;;;;;5.39;100.00;99160.50;5041001;28;20419;-80
2022/04/06 01:17:44;;;;;;;789.97;737.67;;;;;;;5.33;100.00;99138.16;5040638;28;20921;-81
2022/04/06 01:20:17;;;;;;;1011.90;940.43;;;;;;;5.62;100.00;99140.03;5054358;28;20516;-81
2022/04/06 01:22:51;;;;;;;1211.45;999.90;;;;;;;5.69;100.00;99145.09;5038812;28;20418;-81
2022/04/06 01:25:26;;;;;;;1232.83;999.90;;;;;;;5.80;100.00;99138.53;5053514;28;20882;-81
2022/04/06 01:27:59;;;;;;;1270.85;999.90;;;;;;;6.01;100.00;99143.72;5036065;28;21043;-80
2022/04/06 01:30:32;;;;;;;1284.95;999.90;;;;;;;6.15;100.00;99141.94;5035964;28;20758;-81
2022/04/06 01:33:06;;;;;;;1294.20;999.90;;;;;;;6.34;100.00;99141.19;5036942;28;20442;-80
2022/04/06 01:35:41;;;;;;;1303.65;999.90;;;;;;;6.41;100.00;99141.66;5040294;28;20431;-81
2022/04/06 01:38:15;;;;;;;1293.53;999.90;;;;;;;6.43;100.00;99142.16;5038885;28;20449;-80
2022/04/06 01:40:43;;;;;;;1307.28;999.90;;;;;;;6.55;100.00;99141.75;5041468;28;21232;-80
2022/04/06 01:43:16;;;;;;;1328.43;999.90;;;;;;;6.63;100.00;99135.69;5036642;28;20433;-81
2022/04/06 01:45:50;;;;;;;1333.70;999.90;;;;;;;6.58;100.00;99130.34;5036910;28;20423;-80
2022/04/06 01:48:23;;;;;;;1327.47;999.90;;;;;;;6.62;100.00;99131.38;5035495;28;20422;-80
2022/04/06 01:53:50;;;;;;;1319.30;999.90;;;;;;;6.73;100.00;99142.84;5038409;28;20940;-80
2022/04/06 01:56:23;;;;;;;1314.57;999.90;;;;;;;6.77;100.00;99147.38;5037907;28;20469;-80
2022/04/06 01:58:57;;;;;;;1312.43;999.90;;;;;;;6.72;100.00;99138.53;5049851;28;20435;-80
2022/04/06 02:01:30;;;;;;;1322.45;999.90;;;;;;;6.80;100.00;99137.88;5035425;28;20428;-80
2022/04/06 02:04:06;;;;;;;1328.45;999.90;;;;;;;6.85;100.00;99135.09;5035519;28;20436;-80
2022/04/06 02:06:34;;;;;;;1330.05;999.90;;;;;;;6.86;100.00;99139.38;5052464;28;20426;-81
2022/04/06 02:09:09;;;;;;;1324.43;999.90;;;;;;;6.85;100.00;99143.22;5036412;28;20514;-81
2022/04/06 02:11:43;;;;;;;1318.15;999.90;;;;;;;6.84;100.00;99141.59;5041033;28;20421;-80
2022/04/06 02:14:11;;;;;;;1320.32;999.90;;;;;;;6.89;100.00;99138.81;5038898;28;20431;-80
2022/04/06 02:16:44;;;;;;;1321.80;999.90;;;;;;;6.83;100.00;99122.97;5042539;28;20450;-80
2022/04/06 02:19:12;;;;;;;1324.63;999.90;;;;;;;6.98;100.00;99138.97;5037499;28;20427;-81
2022/04/06 02:21:45;;;;;;;1319.07;999.90;;;;;;;6.95;100.00;99129.53;5038111;28;20428;-81
2022/04/06 02:24:20;;;;;;;1321.47;999.90;;;;;;;6.89;100.00;99122.59;5041459;28;20407;-81
2022/04/06 02:26:53;;;;;;;1329.70;999.90;;;;;;;6.85;100.00;99118.88;5037312;28;20425;-81
2022/04/06 02:29:26;;;;;;;1331.32;999.90;;;;;;;6.93;100.00;99129.03;5041144;28;20415;-80
2022/04/06 02:31:54;;;;;;;1330.38;999.90;;;;;;;6.89;100.00;99132.59;5040137;28;20426;-81
2022/04/06 02:34:27;;;;;;;1337.30;999.90;;;;;;;6.88;100.00;99115.56;5058230;28;20437;-81
2022/04/06 02:37:01;;;;;;;1334.85;999.90;;;;;;;6.93;100.00;99130.91;5039194;28;20434;-81
2022/04/06 02:39:35;;;;;;;1331.65;999.90;;;;;;;6.95;100.00;99117.91;5042993;28;20434;-81
2022/04/06 02:42:09;;;;;;;1327.60;999.90;;;;;;;6.96;100.00;99122.22;5041953;28;20421;-82
2022/04/06 02:44:42;;;;;;;1319.07;999.90;;;;;;;6.80;100.00;99121.66;5042182;28;20437;-82
2022/04/06 02:47:15;;;;;;;1326.40;999.90;;;;;;;6.84;100.00;99127.28;5043921;28;20782;-82
2022/04/06 02:49:48;;;;;;;1324.63;999.90;;;;;;;6.99;100.00;99127.06;5046286;28;20524;-81
2022/04/06 02:52:22;;;;;;;1313.55;999.90;;;;;;;6.92;100.00;99129.34;5042999;28;20425;-81
2022/04/06 02:54:52;;;;;;;1315.18;999.90;;;;;;;6.86;100.00;99128.56;5041190;28;20421;-81
2022/04/06 02:57:25;;;;;;;1315.55;999.90;;;;;;;6.81;100.00;99118.66;5055142;28;20913;-81
2022/04/06 02:59:58;;;;;;;1321.50;999.90;;;;;;;6.80;100.00;99111.63;5042061;28;20436;-80
2022/04/06 03:02:31;;;;;;;1325.05;999.90;;;;;;;6.79;100.00;99111.91;5039859;28;20444;-80
2022/04/06 03:05:05;;;;;;;1325.60;999.90;;;;;;;6.74;100.00;99112.81;5045731;28;20437;-80
2022/04/06 03:07:33;;;;;;;1325.72;999.90;;;;;;;6.71;100.00;99118.81;5045106;28;20413;-80
2022/04/06 03:10:08;;;;;;;1322.95;999.90;;;;;;;6.80;100.00;99124.34;5038403;28;20911;-79
2022/04/06 03:12:36;;;;;;;1308.47;999.90;;;;;;;6.76;100.00;99126.03;5041808;28;20421;-80
2022/04/06 03:15:10;;;;;;;1309.18;999.90;;;;;;;6.84;100.00;99124.59;5045044;28;20429;-80
2022/04/06 03:17:44;;;;;;;1315.60;999.90;;;;;;;6.79;100.00;99122.75;5045183;28;20860;-80
2022/04/06 03:20:17;;;;;;;1326.25;999.90;;;;;;;6.75;100.00;99113.59;5045007;28;20422;-80
2022/04/06 03:22:50;;;;;;;1327.65;999.90;;;;;;;6.85;100.00;99121.59;5046054;28;20425;-81
2022/04/06 03:25:25;;;;;;;1322.50;999.90;;;;;;;6.75;100.00;99117.13;5051900;28;20436;-81
2022/04/06 03:27:58;;;;;;;1325.65;999.90;;;;;;;6.74;100.00;99120.09;5042959;28;20442;-80
2022/04/06 03:30:31;;;;;;;1331.00;999.90;;;;;;;6.84;100.00;99117.25;5061377;28;20735;-81
2022/04/06 03:33:05;;;;;;;1327.13;999.90;;;;;;;6.74;100.00;99120.09;5045515;28;20438;-81
2022/04/06 03:35:34;;;;;;;1323.60;999.90;;;;;;;6.76;100.00;99112.50;5055180;28;20769;-80
2022/04/06 03:38:07;;;;;;;1333.70;999.90;;;;;;;6.75;100.00;99121.72;5039188;28;20431;-81
2022/04/06 03:40:36;;;;;;;1343.88;999.90;;;;;;;6.71;100.00;99123.41;5044630;28;20423;-81
2022/04/06 03:43:10;;;;;;;1351.68;999.90;;;;;;;6.68;100.00;99110.47;5046508;28;20422;-81
2022/04/06 03:45:38;;;;;;;1354.07;999.90;;;;;;;6.75;100.00;99113.59;5046657;28;20425;-81
2022/04/06 03:48:11;;;;;;;1354.82;999.90;;;;;;;6.70;100.00;99113.66;5046753;28;20417;-82
2022/04/06 03:50:44;;;;;;;1364.78;999.90;;;;;;;6.66;100.00;99101.84;5046053;28;20432;-80
2022/04/06 03:53:17;;;;;;;1366.97;999.90;;;;;;;6.70;100.00;99100.97;5043129;28;20421;-81
2022/04/06 03:55:52;;;;;;;1364.32;999.90;;;;;;;6.75;100.00;99102.78;5050815;28;20419;-80
2022/04/06 03:58:20;;;;;;;1370.63;999.90;;;;;;;6.76;100.00;99099.00;5041564;28;20411;-80
2022/04/06 04:00:53;;;;;;;1366.90;999.90;;;;;;;6.75;100.00;99105.50;5042045;28;20910;-80
2022/04/06 04:03:26;;;;;;;1366.28;999.90;;;;;;;6.78;100.00;99105.72;5048812;28;20429;-81
2022/04/06 04:05:54;;;;;;;1363.47;999.90;;;;;;;6.79;100.00;99101.09;5044889;28;20440;-82
2022/04/06 04:08:23;;;;;;;1358.00;999.90;;;;;;;6.80;100.00;99108.13;5042951;28;20414;-80
2022/04/06 04:10:52;;;;;;;1354.30;999.90;;;;;;;6.89;100.00;99109.09;5044768;28;20425;-80
2022/04/06 04:13:25;;;;;;;1356.55;999.90;;;;;;;6.90;100.00;99107.97;5051991;28;20419;-80
2022/04/06 04:15:59;;;;;;;1344.65;999.90;;;;;;;6.81;100.00;99096.22;5056654;28;20435;-82
2022/04/06 04:18:27;;;;;;;1342.30;999.90;;;;;;;6.90;100.00;99093.66;5041657;28;20414;-80
2022/04/06 04:21:32;;;;;;;1352.05;999.90;;;;;;;6.88;100.00;99101.25;5052224;28;20563;-80
2022/04/06 04:23:48;;;;;;;1360.75;999.90;;;;;;;6.99;100.00;99094.59;5040774;28;20425;-80
2022/04/06 04:26:22;;;;;;;1357.05;999.90;;;;;;;6.91;100.00;99096.06;5047464;28;20423;-80
2022/04/06 04:28:50;;;;;;;1354.03;999.90;;;;;;;7.01;100.00;99102.41;5037182;28;20423;-80
2022/04/06 04:31:24;;;;;;;1352.28;999.90;;;;;;;6.94;100.00;99100.88;5056642;28;20977;-81
2022/04/06 04:33:58;;;;;;;1353.32;999.90;;;;;;;6.87;100.00;99100.44;5051292;28;20800;-80
2022/04/06 04:36:31;;;;;;;1358.82;999.90;;;;;;;6.97;100.00;99094.88;5043309;28;20758;-80
2022/04/06 04:39:05;;;;;;;1349.07;999.90;;;;;;;6.90;100.00;99097.16;5042677;28;20438;-81
2022/04/06 04:41:39;;;;;;;1347.60;999.90;;;;;;;6.90;100.00;99097.16;5039994;28;20777;-81
2022/04/06 04:44:13;;;;;;;1353.65;999.90;;;;;;;6.72;100.00;99070.94;5058241;28;20425;-81
2022/04/06 04:46:46;;;;;;;1360.20;999.90;;;;;;;6.86;100.00;99096.13;5040372;28;22035;-80
2022/04/06 04:49:19;;;;;;;1356.60;999.90;;;;;;;6.85;100.00;99097.25;5056610;28;20430;-81
2022/04/06 04:51:47;;;;;;;1350.60;999.90;;;;;;;6.78;100.00;99081.38;5038192;28;20436;-80
2022/04/06 04:54:16;;;;;;;1346.22;999.90;;;;;;;6.89;100.00;99090.16;5045580;28;20508;-80
2022/04/06 04:56:45;;;;;;;1344.68;999.90;;;;;;;6.93;100.00;99093.88;5039072;28;20421;-80
2022/04/06 04:59:14;;;;;;;1335.65;999.90;;;;;;;6.87;100.00;99094.25;5039802;28;20419;-80
2022/04/06 05:01:42;;;;;;;1339.93;999.90;;;;;;;6.98;100.00;99092.97;5043855;28;20759;-80
2022/04/06 05:04:10;;;;;;;1335.80;999.90;;;;;;;7.03;100.00;99092.09;5036865;28;20433;-80
2022/04/06 05:06:38;;;;;;;1331.10;999.90;;;;;;;7.03;100.00;99092.91;5044758;28;20893;-80
2022/04/06 05:09:07;;;;;;;1335.22;999.90;;;;;;;6.97;100.00;99094.88;5041796;28;20422;-80
2022/04/06 05:11:40;;;;;;;1336.07;999.90;;;;;;;6.95;100.00;99085.47;5042671;28;20432;-80
2022/04/06 05:14:09;;;;;;;1348.85;999.90;;;;;;;6.90;100.00;99088.25;5053871;28;20427;-80
2022/04/06 05:16:42;;;;;;;1357.05;999.90;;;;;;;6.95;100.00;99077.34;5045699;28;20496;-80
2022/04/06 05:19:15;;;;;;;1357.00;999.90;;;;;;;6.95;100.00;99083.56;5042729;28;20789;-81
2022/04/06 05:21:43;;;;;;;1359.20;999.90;;;;;;;6.95;100.00;99083.56;5059163;28;20413;-81
2022/04/06 05:24:16;;;;;;;1367.28;999.90;;;;;;;6.93;100.00;99082.22;5043409;28;20922;-80
2022/04/06 05:26:44;;;;;;;1376.95;999.90;;;;;;;7.02;100.00;99080.47;5056162;28;20432;-80
2022/04/06 05:29:19;;;;;;;1372.00;999.90;;;;;;;6.95;100.00;99075.44;5042660;28;20445;-81
2022/04/06 05:31:52;;;;;;;1375.72;999.90;;;;;;;7.04;100.00;99077.47;5040929;28;20459;-80
2022/04/06 05:34:20;;;;;;;1370.75;999.90;;;;;;;6.97;100.00;99072.44;5054130;28;20423;-80
2022/04/06 05:36:53;;;;;;;1373.20;999.90;;;;;;;6.99;100.00;99059.44;5039270;28;20425;-80
2022/04/06 05:39:21;;;;;;;1370.65;999.90;;;;;;;7.13;100.00;99078.41;5043147;28;20406;-80
2022/04/06 05:41:55;;;;;;;1370.80;999.90;;;;;;;7.06;100.00;99069.88;5043600;28;20422;-80
2022/04/06 05:44:29;;;;;;;1373.90;999.90;;;;;;;7.09;100.00;99078.19;5041996;28;20428;-80
2022/04/06 05:47:02;;;;;;;1379.53;999.90;;;;;;;7.17;100.00;99074.00;5037232;28;20791;-80
2022/04/06 05:49:36;;;;;;;1377.82;999.90;;;;;;;7.15;100.00;99074.31;5058223;28;20432;-80
2022/04/06 05:52:04;;;;;;;1375.90;999.90;;;;;;;7.18;100.00;99070.22;5043895;28;20490;-81
2022/04/06 05:54:37;;;;;;;1373.78;999.90;;;;;;;7.16;100.00;99064.28;5041897;28;20764;-80
2022/04/06 05:57:06;;;;;;;1385.72;999.90;;;;;;;7.17;100.00;99065.06;5051211;28;20419;-81
2022/04/06 05:59:36;;;;;;;1383.28;999.90;;;;;;;7.21;100.00;99071.50;5052379;28;20448;-81
2022/04/06 06:02:09;;;;;;;1387.88;999.90;;;;;;;7.30;100.00;99080.53;5054734;28;20429;-81
2022/04/06 06:04:38;;;;;;;1394.93;999.90;;;;;;;7.25;100.00;99072.50;5043757;28;20429;-80
2022/04/06 06:07:08;;;;;;;1399.30;999.90;;;;;;;7.20;100.00;99072.63;5042852;28;22053;-81
2022/04/06 06:09:41;;;;;;;1405.63;999.90;;;;;;;7.21;100.00;99083.16;5047292;28;20436;-81
2022/04/06 06:12:14;;;;;;;1405.60;999.90;;;;;;;7.36;100.00;99075.84;5043032;28;20907;-81
2022/04/06 06:14:49;;;;;;;1394.10;999.90;;;;;;;7.32;100.00;99075.66;5047066;28;20432;-80
2022/04/06 06:17:17;;;;;;;1395.95;999.90;;;;;;;7.35;100.00;99077.75;5046766;28;20421;-82
2022/04/06 06:19:50;;;;;;;1397.15;999.90;;;;;;;7.37;100.00;99056.59;5047372;28;20432;-82
2022/04/06 06:22:24;;;;;;;1397.70;999.90;;;;;;;7.49;100.00;99078.56;5063960;28;20435;-80
2022/04/06 06:24:57;;;;;;;1407.95;999.90;;;;;;;7.54;100.00;99075.00;5047098;28;20430;-80
2022/04/06 06:27:30;;;;;;;1413.00;999.90;;;;;;;7.46;100.00;99062.16;5038114;28;20429;-80
2022/04/06 06:30:05;;;;;;;1399.85;999.90;;;;;;;7.48;100.00;99074.28;5043844;28;20453;-79
2022/04/06 06:32:39;;;;;;;1397.43;999.90;;;;;;;7.59;100.00;99069.47;5052605;28;20417;-80
2022/04/06 06:35:12;;;;;;;1392.78;999.90;;;;;;;7.66;100.00;99071.78;5043402;28;20435;-80
2022/04/06 06:37:46;;;;;;;1399.82;999.90;;;;;;;7.66;100.00;99072.59;5044149;28;20452;-81
2022/04/06 06:40:21;;;;;;;1391.88;999.90;;;;;;;7.64;100.00;99072.09;5037289;28;20439;-82
2022/04/06 06:42:54;;;;;;;1376.10;999.90;;;;;;;7.59;100.00;99076.78;5043659;28;20425;-81
2022/04/06 06:45:28;;;;;;;1373.78;999.90;;;;;;;7.62;100.00;99073.47;5028373;28;20426;-81
2022/04/06 06:48:01;;;;;;;1369.97;999.90;;;;;;;7.74;100.00;99073.78;5031456;28;20442;-80
2022/04/06 06:50:34;;;;;;;1351.20;999.90;;;;;;;7.60;100.00;99056.75;5035826;28;20440;-82
2022/04/06 06:53:02;;;;;;;1359.90;999.90;;;;;;;7.63;100.00;99056.13;5045913;28;20503;-80
2022/04/06 06:55:36;;;;;;;1346.47;999.90;;;;;;;7.69;100.00;99054.13;5034592;28;20455;-82
2022/04/06 06:58:04;;;;;;;1344.80;999.90;;;;;;;7.73;100.00;99061.34;5029058;28;20428;-79
2022/04/06 07:00:38;;;;;;;1352.13;999.90;;;;;;;7.66;100.00;99055.53;5044246;28;20922;-79
2022/04/06 07:03:11;;;;;;;1348.85;999.90;;;;;;;7.70;100.00;99053.84;5033161;28;20428;-80
2022/04/06 07:05:45;;;;;;;1336.75;999.90;;;;;;;7.61;100.00;99050.22;5032373;28;20441;-82
2022/04/06 07:08:18;;;;;;;1329.23;999.90;;;;;;;7.67;100.00;99065.28;5034163;28;20515;-82
2022/04/06 07:10:47;;;;;;;1323.00;999.90;;;;;;;7.60;100.00;99059.44;5053249;28;20802;-81
2022/04/06 07:13:20;;;;;;;1317.82;999.90;;;;;;;7.69;100.00;99056.84;5030524;28;22148;-81
2022/04/06 07:15:54;;;;;;;1327.53;999.90;;;;;;;7.78;100.00;99049.63;5035746;28;20416;-80
2022/04/06 07:18:28;;;;;;;1313.38;999.90;;;;;;;7.82;100.00;99061.47;5029735;28;20429;-80
2022/04/06 07:20:56;;;;;;;1299.65;999.90;;;;;;;7.70;100.00;99056.53;5027368;28;20425;-81
2022/04/06 07:23:30;;;;;;;1275.75;999.90;;;;;;;7.72;100.00;99067.06;5033085;28;20436;-81
2022/04/06 07:26:03;;;;;;;1285.20;999.90;;;;;;;7.65;100.00;99062.03;5033800;28;20429;-82
2022/04/06 07:28:36;;;;;;;1281.93;999.90;;;;;;;7.67;100.00;99046.31;5043283;28;20431;-81
2022/04/06 07:31:05;;;;;;;1281.45;999.90;;;;;;;7.73;100.00;99060.56;5033214;28;20444;-81
2022/04/06 07:33:36;;;;;;;1282.68;999.90;;;;;;;7.78;100.00;99061.25;5029962;28;20436;-82
2022/04/06 07:36:09;;;;;;;1276.83;999.90;;;;;;;7.81;100.00;99047.09;5034984;28;20417;-81
2022/04/06 07:38:42;;;;;;;1286.82;999.90;;;;;;;8.00;100.00;99040.78;5045029;28;20430;-81
2022/04/06 07:41:15;;;;;;;1257.55;999.90;;;;;;;8.15;100.00;99042.38;5026207;28;20445;-81
2022/04/06 07:43:44;;;;;;;1254.15;999.90;;;;;;;8.23;100.00;99044.38;5027702;28;20413;-80
2022/04/06 07:46:19;;;;;;;1266.13;999.90;;;;;;;8.31;100.00;99043.66;5029972;28;20429;-80
2022/04/06 07:48:52;;;;;;;1276.72;999.90;;;;;;;8.41;100.00;99031.78;5030563;28;20425;-81
2022/04/06 07:51:20;;;;;;;1228.35;999.90;;;;;;;8.44;100.00;99028.44;5028915;28;20453;-82
2022/04/06 07:53:53;;;;;;;599.67;562.13;;;;;;;8.38;100.00;99039.72;5027122;28;20421;-83
2022/04/06 07:56:21;;;;;;;664.80;622.05;;;;;;;8.51;100.00;99033.47;5029719;28;20437;-82
2022/04/06 07:58:54;;;;;;;293.80;278.00;;;;;;;8.52;100.00;99040.50;5026843;28;22314;-81
2022/04/06 08:01:29;;;;;;;249.32;236.05;;;;;;;8.56;100.00;99049.63;5025229;28;20425;-84
2022/04/06 08:04:02;;;;;;;237.13;224.63;;;;;;;8.66;100.00;99045.88;5032166;28;20432;-82
2022/04/06 08:06:35;;;;;;;320.73;303.35;;;;;;;8.71;100.00;99044.97;5033421;28;20433;-81
2022/04/06 08:09:08;;;;;;;273.98;259.52;;;;;;;8.59;100.00;99040.06;5026383;28;20433;-80
2022/04/06 08:11:41;;;;;;;202.30;191.57;;;;;;;8.44;100.00;99050.13;5026948;28;21857;-81
2022/04/06 08:14:14;;;;;;;376.10;354.75;;;;;;;8.45;100.00;99040.13;5043918;28;20429;-81
2022/04/06 08:16:44;;;;;;;208.10;197.05;;;;;;;8.40;100.00;99040.22;5032852;28;20437;-82
2022/04/06 08:19:17;;;;;;;168.05;159.25;;;;;;;8.30;100.00;99044.75;5026880;28;21089;-80
2022/04/06 08:21:50;;;;;;;95.60;90.60;;;;;;;8.38;100.00;99047.84;5029417;28;20426;-81
2022/04/06 08:24:18;;;;;;;144.93;137.38;;;;;;;8.37;100.00;99038.09;5045073;28;20433;-81
2022/04/06 08:26:52;;;;;;;200.33;189.73;;;;;;;8.25;100.00;99034.00;5032829;28;20413;-80
2022/04/06 08:29:25;;;;;;;171.25;162.25;;;;;;;8.26;100.00;99037.50;5035531;28;21106;-81
2022/04/06 08:31:59;;;;;;;174.07;164.87;;;;;;;8.22;100.00;99036.56;5029190;28;20429;-81
2022/04/06 08:34:28;;;;;;;291.25;275.77;;;;;;;8.30;100.00;99036.63;5034086;28;20786;-81
2022/04/06 08:36:56;;;;;;;274.90;260.27;;;;;;;8.40;100.00;99034.78;5032409;28;20905;-81
2022/04/06 08:39:24;;;;;;;116.40;110.40;;;;;;;8.25;100.00;99039.44;5023506;28;20445;-81
2022/04/06 08:41:58;;;;;;;116.07;110.10;;;;;;;8.30;100.00;99028.50;5029762;28;20802;-80
2022/04/06 08:44:32;;;;;;;136.73;129.68;;;;;;;8.29;100.00;99032.28;5030671;28;20448;-80
2022/04/06 08:47:07;;;;;;;130.45;123.75;;;;;;;8.36;100.00;99034.59;5031038;28;21194;-81
2022/04/06 08:49:41;;;;;;;70.90;67.10;;;;;;;8.28;100.00;99029.91;5024965;28;20702;-82
2022/04/06 08:52:17;;;;;;;59.08;55.92;;;;;;;8.26;100.00;99035.63;5023939;28;20430;-80
2022/04/06 08:54:51;;;;;;;64.47;61.05;;;;;;;8.36;100.00;99028.38;5034502;28;20429;-80
2022/04/06 08:57:24;;;;;;;57.30;54.20;;;;;;;8.33;100.00;99041.44;5028940;28;20425;-80
2022/04/06 08:59:52;;;;;;;56.08;53.08;;;;;;;8.30;100.00;99033.91;5028551;28;21208;-81
2022/04/06 09:02:22;;;;;;;55.83;52.83;;;;;;;8.33;100.00;99027.88;5028631;28;20440;-83
2022/04/06 09:04:52;;;;;;;53.38;50.50;;;;;;;8.42;100.00;99035.28;5024508;28;20441;-81
2022/04/06 09:07:25;;;;;;;48.50;45.90;;;;;;;8.37;100.00;99027.25;5022444;28;20433;-79
2022/04/06 09:09:55;;;;;;;42.03;39.72;;;;;;;8.31;100.00;99040.13;5027788;28;20440;-80
2022/04/06 09:12:29;;;;;;;43.97;41.57;;;;;;;8.36;100.00;99034.59;5031917;28;21407;-81
2022/04/06 09:15:07;;;;;;;41.58;39.38;;;;;;;8.37;100.00;99029.97;5025643;28;20429;-81
2022/04/06 09:17:45;;;;;;;49.67;47.03;;;;;;;8.53;100.00;99041.31;5028188;28;20437;-80
2022/04/06 09:20:14;;;;;;;44.55;42.15;;;;;;;8.44;100.00;99050.13;5027192;28;20510;-80
2022/04/06 09:22:48;;;;;;;37.27;35.27;;;;;;;8.38;100.00;99029.66;5033701;28;21107;-80
2022/04/06 09:25:20;;;;;;;34.42;32.53;;;;;;;8.37;100.00;99038.91;5032198;28;20425;-80
2022/04/06 09:27:53;;;;;;;28.67;27.08;;;;;;;8.38;100.00;99045.91;5028735;28;20425;-80
2022/04/06 09:30:21;;;;;;;22.83;21.52;;;;;;;8.39;100.00;99041.31;5027406;28;21298;-80
2022/04/06 09:33:02;;;;;;;27.73;26.23;;;;;;;8.40;100.00;99043.72;5028803;28;20436;-81
2022/04/06 09:35:32;;;;;;;25.13;23.73;;;;;;;8.31;100.00;99034.69;5031090;28;20413;-81
2022/04/06 09:38:13;;;;;;;22.92;21.63;;;;;;;8.39;100.00;99033.97;5027382;28;20433;-80
2022/04/06 09:40:47;;;;;;;18.25;17.15;;;;;;;8.42;100.00;99027.94;5026716;28;20429;-81
2022/04/06 09:43:28;;;;;;;18.57;17.47;;;;;;;8.51;100.00;99034.28;5033484;28;20440;-80
2022/04/06 09:49:08;;;;;;;13.93;13.02;;;;;;;8.54;100.00;99034.78;5030653;28;21643;-81
2022/04/06 09:51:38;;;;;;;13.80;12.90;;;;;;;8.60;100.00;99031.63;5041843;28;21110;-78
2022/04/06 09:54:12;;;;;;;13.00;12.20;;;;;;;8.62;100.00;99034.06;5027318;28;20433;-80
2022/04/06 09:56:46;;;;;;;10.80;10.10;;;;;;;8.63;100.00;99028.31;5021803;28;20429;-80
2022/04/06 09:59:19;;;;;;;11.17;10.47;;;;;;;8.78;100.00;99026.34;5026837;28;22090;-80
2022/04/06 10:01:49;;;;;;;15.02;14.13;;;;;;;8.73;100.00;99029.16;5026587;28;20300;-81
2022/04/06 10:04:21;;;;;;;20.25;19.05;;;;;;;8.71;100.00;99032.19;5028352;28;20798;-81
2022/04/06 10:06:57;;;;;;;24.08;22.67;;;;;;;8.60;100.00;99037.03;5027479;28;20048;-80
2022/04/06 10:09:30;;;;;;;30.55;28.85;;;;;;;8.60;100.00;99028.13;5043079;28;20045;-81
2022/04/06 10:12:04;;;;;;;39.92;37.78;;;;;;;8.49;100.00;99027.56;5022796;28;20092;-81
2022/04/06 10:14:32;;;;;;;50.63;47.90;;;;;;;8.71;100.00;99028.69;5021099;28;20417;-80
2022/04/06 10:17:06;;;;;;;56.42;53.38;;;;;;;8.64;100.00;99034.53;5021464;28;20067;-79
2022/04/06 10:19:49;;;;;;;70.00;66.25;;;;;;;8.61;100.00;99035.16;5022052;28;20048;-81
2022/04/06 10:22:30;;;;;;;87.68;83.07;;;;;;;8.70;100.00;99022.47;5020319;28;20048;-81
2022/04/06 10:25:08;;;;;;;105.40;99.95;;;;;;;8.62;100.00;99031.34;5021647;28;20064;-80
2022/04/06 10:27:47;;;;;;;121.93;115.60;;;;;;;8.71;100.00;99026.75;5020941;28;20064;-81
2022/04/06 10:30:23;;;;;;;139.88;132.55;;;;;;;8.63;100.00;99016.66;5020728;28;20053;-80
2022/04/06 10:32:58;;;;;;;219.05;207.35;;;;;;;8.50;100.00;99023.75;5019189;28;20049;-82
2022/04/06 10:35:31;;;;;;;323.45;305.33;;;;;;;8.51;100.00;99033.47;5020303;28;20057;-79
2022/04/06 10:38:15;;;;;;;566.10;530.40;;;;;;;8.54;100.00;99022.00;5018067;28;20076;-80
2022/04/06 10:41:07;;;;;;;814.40;758.72;;;;;;;8.62;100.00;99020.50;5036384;28;20086;-81
2022/04/06 10:43:50;;;;;;;1107.30;999.90;;;;;;;8.44;100.00;99028.44;5020915;28;20661;-80
2022/04/06 10:46:35;;;;;;;1154.60;999.90;;;;;;;8.46;100.00;99014.63;5023692;28;20053;-81
2022/04/06 10:49:16;;;;;;;1151.80;999.90;;;;;;;8.39;100.00;99006.09;5021914;28;20049;-79
2022/04/06 10:51:47;;;;;;;1156.45;999.90;;;;;;;8.49;100.00;99022.13;5042084;28;21455;-81
2022/04/06 10:54:40;;;;;;;1181.88;999.90;;;;;;;8.53;100.00;99004.13;5027719;28;20057;-81
2022/04/06 10:57:13;;;;;;;1200.70;999.90;;;;;;;8.62;100.00;99004.22;5027216;28;20469;-80
2022/04/06 11:00:12;;;;;;;1211.88;999.90;;;;;;;8.55;100.00;99010.06;5030589;28;20445;-79
2022/04/06 11:02:50;;;;;;;1214.28;999.90;;;;;;;8.61;100.00;99003.41;5035133;28;20854;-80
2022/04/06 11:05:45;;;;;;;1227.35;999.90;;;;;;;8.79;100.00;99007.03;5035018;28;20052;-80
2022/04/06 11:11:45;;;;;;;1223.80;999.90;;;;;;;8.61;100.00;99014.25;5026105;28;20060;-80
2022/04/06 11:14:27;;;;;;;1226.88;999.90;;;;;;;8.53;100.00;99014.19;5024856;28;20501;-80
2022/04/06 11:17:00;;;;;;;1227.75;999.90;;;;;;;8.61;100.00;99006.13;5023366;28;20413;-78
2022/04/06 11:19:33;;;;;;;1226.53;999.90;;;;;;;8.61;100.00;98991.78;5024097;28;20518;-80
2022/04/06 11:22:03;;;;;;;1232.93;999.90;;;;;;;8.53;100.00;98984.38;5027814;28;20531;-81
2022/04/06 11:24:33;;;;;;;1241.50;999.90;;;;;;;8.59;100.00;98993.97;5024291;28;20056;-79
2022/04/06 11:27:01;;;;;;;1241.90;999.90;;;;;;;8.51;100.00;99009.88;5025253;28;20061;-79
2022/04/06 11:29:36;;;;;;;1232.55;999.90;;;;;;;8.64;100.00;99000.06;5021356;28;20063;-81
2022/04/06 11:32:09;;;;;;;1232.95;999.90;;;;;;;8.72;100.00;98986.91;5028085;28;20041;-78
2022/04/06 11:34:42;;;;;;;1230.18;999.90;;;;;;;8.73;100.00;98994.72;5031178;28;20497;-79
2022/04/06 11:37:11;;;;;;;1233.47;999.90;;;;;;;8.86;100.00;98990.31;5029861;28;20068;-79